sensor_id;sensor_type;location;lat;lon;timestamp;temperature;humidity
64652;HTU21D;51062;45.120;37.660;2023-05-15T00:01:20;10.49;63.29
64652;HTU21D;51062;45.120;37.660;2023-05-15T00:03:47;10.48;63.32
64652;HTU21D;51062;45.120;37.660;2023-05-15T00:06:13;10.48;63.31
64652;HTU21D;51062;45.120;37.660;2023-05-15T00:08:39;10.45;63.35
64652;HTU21D;51062;45.120;37.660;2023-05-15T00:11:05;10.45;63.38
64652;HTU21D;51062;45.120;37.660;2023-05-15T00:13:31;10.43;63.39
64652;HTU21D;51062;45.120;37.660;2023-05-15T00:15:57;10.39;63.48
64652;HTU21D;51062;45.120;37.660;2023-05-15T00:18:24;10.37;63.48
64652;HTU21D;51062;45.120;37.660;2023-05-15T00:20:50;10.36;63.49
64652;HTU21D;51062;45.120;37.660;2023-05-15T00:23:17;10.33;63.53
64652;HTU21D;51062;45.120;37.660;2023-05-15T00:25:43;10.30;63.58
64652;HTU21D;51062;45.120;37.660;2023-05-15T00:28:09;10.26;63.63
64652;HTU21D;51062;45.120;37.660;2023-05-15T00:30:35;10.24;63.66
64652;HTU21D;51062;45.120;37.660;2023-05-15T00:33:01;10.22;63.69
64652;HTU21D;51062;45.120;37.660;2023-05-15T00:35:27;10.20;63.73
64652;HTU21D;51062;45.120;37.660;2023-05-15T00:37:54;10.19;63.77
64652;HTU21D;51062;45.120;37.660;2023-05-15T00:40:21;10.16;63.81
64652;HTU21D;51062;45.120;37.660;2023-05-15T00:42:49;10.16;63.82
64652;HTU21D;51062;45.120;37.660;2023-05-15T00:45:16;10.20;63.79
64652;HTU21D;51062;45.120;37.660;2023-05-15T00:47:42;10.21;63.78
64652;HTU21D;51062;45.120;37.660;2023-05-15T00:50:10;10.23;63.75
64652;HTU21D;51062;45.120;37.660;2023-05-15T00:52:36;10.21;63.74
64652;HTU21D;51062;45.120;37.660;2023-05-15T00:55:03;10.23;63.76
64652;HTU21D;51062;45.120;37.660;2023-05-15T00:57:30;10.21;63.78
64652;HTU21D;51062;45.120;37.660;2023-05-15T00:59:58;10.22;63.80
64652;HTU21D;51062;45.120;37.660;2023-05-15T01:02:25;10.20;63.79
64652;HTU21D;51062;45.120;37.660;2023-05-15T01:04:52;10.18;63.79
64652;HTU21D;51062;45.120;37.660;2023-05-15T01:07:18;10.15;63.85
64652;HTU21D;51062;45.120;37.660;2023-05-15T01:09:46;10.13;63.89
64652;HTU21D;51062;45.120;37.660;2023-05-15T01:12:14;10.11;63.90
64652;HTU21D;51062;45.120;37.660;2023-05-15T01:14:41;10.11;63.94
64652;HTU21D;51062;45.120;37.660;2023-05-15T01:17:07;10.08;64.01
64652;HTU21D;51062;45.120;37.660;2023-05-15T01:19:34;10.06;64.03
64652;HTU21D;51062;45.120;37.660;2023-05-15T01:27:54;10.05;64.08
64652;HTU21D;51062;45.120;37.660;2023-05-15T01:30:32;10.03;64.11
64652;HTU21D;51062;45.120;37.660;2023-05-15T01:33:07;10.01;64.14
64652;HTU21D;51062;45.120;37.660;2023-05-15T01:39:03;9.96;64.19
64652;HTU21D;51062;45.120;37.660;2023-05-15T01:41:48;9.93;64.27
64652;HTU21D;51062;45.120;37.660;2023-05-15T01:44:17;9.90;64.29
64652;HTU21D;51062;45.120;37.660;2023-05-15T01:46:47;9.86;64.34
64652;HTU21D;51062;45.120;37.660;2023-05-15T01:49:17;9.86;64.38
64652;HTU21D;51062;45.120;37.660;2023-05-15T01:51:49;9.86;64.38
64652;HTU21D;51062;45.120;37.660;2023-05-15T01:54:15;9.85;64.40
64652;HTU21D;51062;45.120;37.660;2023-05-15T01:56:42;9.86;64.43
64652;HTU21D;51062;45.120;37.660;2023-05-15T01:59:12;9.88;64.47
64652;HTU21D;51062;45.120;37.660;2023-05-15T02:01:39;9.92;64.46
64652;HTU21D;51062;45.120;37.660;2023-05-15T02:04:07;9.95;64.38
64652;HTU21D;51062;45.120;37.660;2023-05-15T02:06:34;9.98;64.36
64652;HTU21D;51062;45.120;37.660;2023-05-15T02:09:02;10.01;64.37
64652;HTU21D;51062;45.120;37.660;2023-05-15T02:11:29;10.04;64.35
64652;HTU21D;51062;45.120;37.660;2023-05-15T02:13:56;10.09;64.33
64652;HTU21D;51062;45.120;37.660;2023-05-15T02:16:22;10.11;64.30
64652;HTU21D;51062;45.120;37.660;2023-05-15T02:18:48;10.15;64.28
64652;HTU21D;51062;45.120;37.660;2023-05-15T02:21:15;10.20;64.27
64652;HTU21D;51062;45.120;37.660;2023-05-15T02:23:41;10.25;64.30
64652;HTU21D;51062;45.120;37.660;2023-05-15T02:26:46;10.28;64.30
64652;HTU21D;51062;45.120;37.660;2023-05-15T02:37:00;10.41;64.46
64652;HTU21D;51062;45.120;37.660;2023-05-15T02:39:28;10.45;64.47
64652;HTU21D;51062;45.120;37.660;2023-05-15T02:41:55;10.57;64.63
64652;HTU21D;51062;45.120;37.660;2023-05-15T02:44:22;10.84;64.75
64652;HTU21D;51062;45.120;37.660;2023-05-15T02:46:49;11.12;64.54
64652;HTU21D;51062;45.120;37.660;2023-05-15T02:49:16;11.31;64.34
64652;HTU21D;51062;45.120;37.660;2023-05-15T02:51:45;11.41;64.31
64652;HTU21D;51062;45.120;37.660;2023-05-15T02:54:11;11.54;64.27
64652;HTU21D;51062;45.120;37.660;2023-05-15T02:56:38;11.67;64.20
64652;HTU21D;51062;45.120;37.660;2023-05-15T02:59:04;11.78;64.11
64652;HTU21D;51062;45.120;37.660;2023-05-15T03:01:30;11.87;64.01
64652;HTU21D;51062;45.120;37.660;2023-05-15T03:03:56;11.96;63.95
64652;HTU21D;51062;45.120;37.660;2023-05-15T03:06:22;12.03;63.92
64652;HTU21D;51062;45.120;37.660;2023-05-15T03:08:48;12.14;63.99
64652;HTU21D;51062;45.120;37.660;2023-05-15T03:11:14;12.35;63.97
64652;HTU21D;51062;45.120;37.660;2023-05-15T03:13:41;12.69;64.01
64652;HTU21D;51062;45.120;37.660;2023-05-15T03:16:07;13.00;64.10
64652;HTU21D;51062;45.120;37.660;2023-05-15T03:18:33;13.27;64.11
64652;HTU21D;51062;45.120;37.660;2023-05-15T03:20:59;13.60;64.34
64652;HTU21D;51062;45.120;37.660;2023-05-15T03:23:25;14.00;64.56
64652;HTU21D;51062;45.120;37.660;2023-05-15T03:25:51;14.47;64.79
64652;HTU21D;51062;45.120;37.660;2023-05-15T03:28:17;15.04;64.94
64652;HTU21D;51062;45.120;37.660;2023-05-15T03:30:43;15.66;65.13
64652;HTU21D;51062;45.120;37.660;2023-05-15T03:33:10;16.28;65.30
64652;HTU21D;51062;45.120;37.660;2023-05-15T03:35:36;16.89;65.28
64652;HTU21D;51062;45.120;37.660;2023-05-15T03:38:02;17.35;65.33
64652;HTU21D;51062;45.120;37.660;2023-05-15T03:40:28;17.52;65.51
64652;HTU21D;51062;45.120;37.660;2023-05-15T03:42:54;17.48;65.53
64652;HTU21D;51062;45.120;37.660;2023-05-15T03:45:20;17.40;65.17
64652;HTU21D;51062;45.120;37.660;2023-05-15T03:47:47;17.47;64.53
64652;HTU21D;51062;45.120;37.660;2023-05-15T03:50:14;17.76;63.74
64652;HTU21D;51062;45.120;37.660;2023-05-15T03:52:40;18.21;63.33
64652;HTU21D;51062;45.120;37.660;2023-05-15T03:55:07;18.67;63.21
64652;HTU21D;51062;45.120;37.660;2023-05-15T03:57:33;19.09;63.19
64652;HTU21D;51062;45.120;37.660;2023-05-15T04:00:00;19.40;63.12
64652;HTU21D;51062;45.120;37.660;2023-05-15T04:02:38;19.74;63.26
64652;HTU21D;51062;45.120;37.660;2023-05-15T04:05:06;20.24;63.14
64652;HTU21D;51062;45.120;37.660;2023-05-15T04:07:33;20.64;63.04
64652;HTU21D;51062;45.120;37.660;2023-05-15T04:10:00;21.06;62.84
64652;HTU21D;51062;45.120;37.660;2023-05-15T04:12:32;21.48;62.66
64652;HTU21D;51062;45.120;37.660;2023-05-15T04:15:14;21.89;62.41
64652;HTU21D;51062;45.120;37.660;2023-05-15T04:17:41;22.23;62.11
64652;HTU21D;51062;45.120;37.660;2023-05-15T04:20:07;22.53;61.78
64652;HTU21D;51062;45.120;37.660;2023-05-15T04:22:34;22.80;61.47
64652;HTU21D;51062;45.120;37.660;2023-05-15T04:25:00;22.94;61.21
64652;HTU21D;51062;45.120;37.660;2023-05-15T04:27:26;23.03;61.04
64652;HTU21D;51062;45.120;37.660;2023-05-15T04:29:52;23.16;60.76
64652;HTU21D;51062;45.120;37.660;2023-05-15T04:32:18;23.26;60.64
64652;HTU21D;51062;45.120;37.660;2023-05-15T04:34:44;23.37;60.22
64652;HTU21D;51062;45.120;37.660;2023-05-15T04:37:12;23.37;60.11
64652;HTU21D;51062;45.120;37.660;2023-05-15T04:39:38;23.53;60.10
64652;HTU21D;51062;45.120;37.660;2023-05-15T04:42:04;23.81;59.80
64652;HTU21D;51062;45.120;37.660;2023-05-15T04:44:30;24.10;59.43
64652;HTU21D;51062;45.120;37.660;2023-05-15T04:46:58;24.33;59.05
64652;HTU21D;51062;45.120;37.660;2023-05-15T04:49:24;24.41;58.85
64652;HTU21D;51062;45.120;37.660;2023-05-15T04:51:50;24.66;58.85
64652;HTU21D;51062;45.120;37.660;2023-05-15T04:54:16;24.94;58.58
64652;HTU21D;51062;45.120;37.660;2023-05-15T04:56:43;25.14;58.25
64652;HTU21D;51062;45.120;37.660;2023-05-15T04:59:10;25.30;58.01
64652;HTU21D;51062;45.120;37.660;2023-05-15T05:01:37;25.42;57.67
64652;HTU21D;51062;45.120;37.660;2023-05-15T05:04:03;25.49;57.51
64652;HTU21D;51062;45.120;37.660;2023-05-15T05:06:29;25.53;57.26
64652;HTU21D;51062;45.120;37.660;2023-05-15T05:08:56;25.57;56.98
64652;HTU21D;51062;45.120;37.660;2023-05-15T05:11:22;25.47;56.81
64652;HTU21D;51062;45.120;37.660;2023-05-15T05:13:48;25.42;56.83
64652;HTU21D;51062;45.120;37.660;2023-05-15T05:16:15;25.36;56.58
64652;HTU21D;51062;45.120;37.660;2023-05-15T05:18:41;25.39;56.76
64652;HTU21D;51062;45.120;37.660;2023-05-15T05:21:07;25.56;56.57
64652;HTU21D;51062;45.120;37.660;2023-05-15T05:23:33;25.80;56.24
64652;HTU21D;51062;45.120;37.660;2023-05-15T05:25:59;25.95;56.03
64652;HTU21D;51062;45.120;37.660;2023-05-15T05:28:25;26.09;55.90
64652;HTU21D;51062;45.120;37.660;2023-05-15T05:30:52;26.26;55.61
64652;HTU21D;51062;45.120;37.660;2023-05-15T05:33:18;26.45;55.53
64652;HTU21D;51062;45.120;37.660;2023-05-15T05:35:44;26.67;55.24
64652;HTU21D;51062;45.120;37.660;2023-05-15T05:38:10;26.91;55.08
64652;HTU21D;51062;45.120;37.660;2023-05-15T05:40:36;27.14;54.84
64652;HTU21D;51062;45.120;37.660;2023-05-15T05:43:03;27.36;54.56
64652;HTU21D;51062;45.120;37.660;2023-05-15T05:45:29;27.56;54.21
64652;HTU21D;51062;45.120;37.660;2023-05-15T05:47:55;27.70;54.01
64652;HTU21D;51062;45.120;37.660;2023-05-15T05:50:22;27.91;53.86
64652;HTU21D;51062;45.120;37.660;2023-05-15T05:52:49;28.16;53.48
64652;HTU21D;51062;45.120;37.660;2023-05-15T05:55:15;28.30;53.36
64652;HTU21D;51062;45.120;37.660;2023-05-15T05:57:41;28.44;52.98
64652;HTU21D;51062;45.120;37.660;2023-05-15T06:00:08;28.53;52.98
64652;HTU21D;51062;45.120;37.660;2023-05-15T06:02:39;28.70;52.65
64652;HTU21D;51062;45.120;37.660;2023-05-15T06:05:05;28.86;52.50
64652;HTU21D;51062;45.120;37.660;2023-05-15T06:07:33;29.04;52.23
64652;HTU21D;51062;45.120;37.660;2023-05-15T06:09:59;29.21;52.13
64652;HTU21D;51062;45.120;37.660;2023-05-15T06:12:26;29.38;51.83
64652;HTU21D;51062;45.120;37.660;2023-05-15T06:14:52;29.49;51.59
64652;HTU21D;51062;45.120;37.660;2023-05-15T06:17:18;29.57;51.40
64652;HTU21D;51062;45.120;37.660;2023-05-15T06:19:45;29.54;51.32
64652;HTU21D;51062;45.120;37.660;2023-05-15T06:22:11;29.45;51.19
64652;HTU21D;51062;45.120;37.660;2023-05-15T06:24:37;29.42;51.32
64652;HTU21D;51062;45.120;37.660;2023-05-15T06:27:04;29.57;51.19
64652;HTU21D;51062;45.120;37.660;2023-05-15T06:29:30;29.81;50.85
64652;HTU21D;51062;45.120;37.660;2023-05-15T06:31:56;29.97;50.55
64652;HTU21D;51062;45.120;37.660;2023-05-15T06:34:22;30.13;50.31
64652;HTU21D;51062;45.120;37.660;2023-05-15T06:36:48;30.24;50.09
64652;HTU21D;51062;45.120;37.660;2023-05-15T06:39:14;30.28;49.76
64652;HTU21D;51062;45.120;37.660;2023-05-15T06:41:40;30.23;49.77
64652;HTU21D;51062;45.120;37.660;2023-05-15T06:44:11;30.21;49.76
64652;HTU21D;51062;45.120;37.660;2023-05-15T06:46:37;30.12;49.78
64652;HTU21D;51062;45.120;37.660;2023-05-15T06:49:03;30.10;49.52
64652;HTU21D;51062;45.120;37.660;2023-05-15T06:58:53;29.80;49.54
64652;HTU21D;51062;45.120;37.660;2023-05-15T07:01:19;29.80;49.38
64652;HTU21D;51062;45.120;37.660;2023-05-15T07:03:45;29.79;49.31
64652;HTU21D;51062;45.120;37.660;2023-05-15T07:06:11;29.85;49.08
64652;HTU21D;51062;45.120;37.660;2023-05-15T07:08:37;29.88;48.82
64652;HTU21D;51062;45.120;37.660;2023-05-15T07:11:03;29.83;48.70
64652;HTU21D;51062;45.120;37.660;2023-05-15T07:13:29;29.85;48.87
64652;HTU21D;51062;45.120;37.660;2023-05-15T07:15:56;30.00;48.66
64652;HTU21D;51062;45.120;37.660;2023-05-15T07:18:22;30.09;48.48
64652;HTU21D;51062;45.120;37.660;2023-05-15T07:20:48;30.11;48.38
64652;HTU21D;51062;45.120;37.660;2023-05-15T07:23:14;30.15;48.14
64652;HTU21D;51062;45.120;37.660;2023-05-15T07:25:41;30.13;48.12
64652;HTU21D;51062;45.120;37.660;2023-05-15T07:28:08;30.22;48.04
64652;HTU21D;51062;45.120;37.660;2023-05-15T07:30:34;30.28;47.91
64652;HTU21D;51062;45.120;37.660;2023-05-15T07:33:01;30.35;47.70
64652;HTU21D;51062;45.120;37.660;2023-05-15T07:35:27;30.37;47.60
64652;HTU21D;51062;45.120;37.660;2023-05-15T07:37:54;30.35;47.48
64652;HTU21D;51062;45.120;37.660;2023-05-15T07:40:20;30.27;47.41
64652;HTU21D;51062;45.120;37.660;2023-05-15T07:42:46;30.27;47.32
64652;HTU21D;51062;45.120;37.660;2023-05-15T07:45:12;30.31;47.03
64652;HTU21D;51062;45.120;37.660;2023-05-15T07:47:43;30.24;46.89
64652;HTU21D;51062;45.120;37.660;2023-05-15T07:50:09;30.21;46.67
64652;HTU21D;51062;45.120;37.660;2023-05-15T07:52:35;30.06;46.49
64652;HTU21D;51062;45.120;37.660;2023-05-15T07:55:01;30.01;46.09
64652;HTU21D;51062;45.120;37.660;2023-05-15T08:02:43;29.02;45.97
64652;HTU21D;51062;45.120;37.660;2023-05-15T08:05:10;28.55;46.03
64652;HTU21D;51062;45.120;37.660;2023-05-15T08:07:36;28.03;46.40
64652;HTU21D;51062;45.120;37.660;2023-05-15T08:10:03;27.64;46.69
64652;HTU21D;51062;45.120;37.660;2023-05-15T08:12:30;27.30;46.83
64652;HTU21D;51062;45.120;37.660;2023-05-15T08:14:56;27.02;46.99
64652;HTU21D;51062;45.120;37.660;2023-05-15T08:17:23;26.81;47.02
64652;HTU21D;51062;45.120;37.660;2023-05-15T08:19:50;26.63;47.17
64652;HTU21D;51062;45.120;37.660;2023-05-15T08:22:17;26.47;47.25
64652;HTU21D;51062;45.120;37.660;2023-05-15T08:24:44;26.32;47.32
64652;HTU21D;51062;45.120;37.660;2023-05-15T08:27:10;26.22;47.37
64652;HTU21D;51062;45.120;37.660;2023-05-15T08:29:36;26.16;47.40
64652;HTU21D;51062;45.120;37.660;2023-05-15T08:32:04;26.10;47.44
64652;HTU21D;51062;45.120;37.660;2023-05-15T08:34:31;26.04;47.41
64652;HTU21D;51062;45.120;37.660;2023-05-15T08:36:57;25.97;47.40
64652;HTU21D;51062;45.120;37.660;2023-05-15T08:39:24;25.90;47.41
64652;HTU21D;51062;45.120;37.660;2023-05-15T08:44:20;25.79;47.40
64652;HTU21D;51062;45.120;37.660;2023-05-15T08:46:47;25.74;47.47
64652;HTU21D;51062;45.120;37.660;2023-05-15T08:49:22;25.73;47.48
64652;HTU21D;51062;45.120;37.660;2023-05-15T08:51:52;25.73;47.35
64652;HTU21D;51062;45.120;37.660;2023-05-15T08:54:20;25.73;47.28
64652;HTU21D;51062;45.120;37.660;2023-05-15T08:56:47;25.67;47.31
64652;HTU21D;51062;45.120;37.660;2023-05-15T08:59:13;25.68;47.30
64652;HTU21D;51062;45.120;37.660;2023-05-15T09:01:39;25.68;47.20
64652;HTU21D;51062;45.120;37.660;2023-05-15T09:04:05;25.66;47.20
64652;HTU21D;51062;45.120;37.660;2023-05-15T09:06:33;25.63;47.08
64652;HTU21D;51062;45.120;37.660;2023-05-15T09:09:00;25.61;47.11
64652;HTU21D;51062;45.120;37.660;2023-05-15T09:11:28;25.62;47.08
64652;HTU21D;51062;45.120;37.660;2023-05-15T09:13:58;25.62;47.06
64652;HTU21D;51062;45.120;37.660;2023-05-15T09:16:24;25.63;47.02
64652;HTU21D;51062;45.120;37.660;2023-05-15T09:18:52;25.62;47.01
64652;HTU21D;51062;45.120;37.660;2023-05-15T09:21:27;25.65;47.02
64652;HTU21D;51062;45.120;37.660;2023-05-15T09:23:55;25.68;46.94
64652;HTU21D;51062;45.120;37.660;2023-05-15T09:26:32;25.67;46.82
64652;HTU21D;51062;45.120;37.660;2023-05-15T09:29:01;25.63;46.93
64652;HTU21D;51062;45.120;37.660;2023-05-15T09:31:29;25.63;46.90
64652;HTU21D;51062;45.120;37.660;2023-05-15T09:33:59;25.63;46.92
64652;HTU21D;51062;45.120;37.660;2023-05-15T09:36:30;25.66;46.85
64652;HTU21D;51062;45.120;37.660;2023-05-15T09:38:58;25.64;46.80
64652;HTU21D;51062;45.120;37.660;2023-05-15T09:41:25;25.61;46.81
64652;HTU21D;51062;45.120;37.660;2023-05-15T09:43:52;25.60;46.80
64652;HTU21D;51062;45.120;37.660;2023-05-15T09:46:21;25.56;46.70
64652;HTU21D;51062;45.120;37.660;2023-05-15T09:48:48;25.53;46.73
64652;HTU21D;51062;45.120;37.660;2023-05-15T09:51:15;25.56;46.72
64652;HTU21D;51062;45.120;37.660;2023-05-15T09:53:48;25.56;46.69
64652;HTU21D;51062;45.120;37.660;2023-05-15T09:56:16;25.56;46.64
64652;HTU21D;51062;45.120;37.660;2023-05-15T09:58:57;25.56;46.67
64652;HTU21D;51062;45.120;37.660;2023-05-15T10:01:23;25.54;46.55
64652;HTU21D;51062;45.120;37.660;2023-05-15T10:04:11;25.53;46.51
64652;HTU21D;51062;45.120;37.660;2023-05-15T10:06:40;25.50;46.38
64652;HTU21D;51062;45.120;37.660;2023-05-15T10:09:07;25.48;46.35
64652;HTU21D;51062;45.120;37.660;2023-05-15T10:11:34;25.46;46.31
64652;HTU21D;51062;45.120;37.660;2023-05-15T10:14:12;25.39;46.22
64652;HTU21D;51062;45.120;37.660;2023-05-15T10:16:39;25.36;46.26
64652;HTU21D;51062;45.120;37.660;2023-05-15T10:19:08;25.38;46.20
64652;HTU21D;51062;45.120;37.660;2023-05-15T10:21:37;25.40;46.12
64652;HTU21D;51062;45.120;37.660;2023-05-15T10:24:04;25.39;46.09
64652;HTU21D;51062;45.120;37.660;2023-05-15T10:26:38;25.38;46.15
64652;HTU21D;51062;45.120;37.660;2023-05-15T10:29:10;25.40;46.06
64652;HTU21D;51062;45.120;37.660;2023-05-15T10:31:38;25.37;45.94
64652;HTU21D;51062;45.120;37.660;2023-05-15T10:34:06;25.33;45.90
64652;HTU21D;51062;45.120;37.660;2023-05-15T10:36:35;25.29;45.93
64652;HTU21D;51062;45.120;37.660;2023-05-15T10:39:06;25.31;45.92
64652;HTU21D;51062;45.120;37.660;2023-05-15T10:41:35;25.32;45.80
64652;HTU21D;51062;45.120;37.660;2023-05-15T10:44:01;25.31;45.74
64652;HTU21D;51062;45.120;37.660;2023-05-15T10:46:30;25.24;45.56
64652;HTU21D;51062;45.120;37.660;2023-05-15T10:48:58;25.19;45.64
64652;HTU21D;51062;45.120;37.660;2023-05-15T10:51:28;25.19;45.64
64652;HTU21D;51062;45.120;37.660;2023-05-15T10:53:56;25.23;45.58
64652;HTU21D;51062;45.120;37.660;2023-05-15T10:56:28;25.22;45.54
64652;HTU21D;51062;45.120;37.660;2023-05-15T10:58:55;25.23;45.51
64652;HTU21D;51062;45.120;37.660;2023-05-15T11:01:28;25.21;45.48
64652;HTU21D;51062;45.120;37.660;2023-05-15T11:04:13;25.23;45.46
64652;HTU21D;51062;45.120;37.660;2023-05-15T11:06:41;25.21;45.37
64652;HTU21D;51062;45.120;37.660;2023-05-15T11:11:58;25.21;45.26
64652;HTU21D;51062;45.120;37.660;2023-05-15T11:14:26;25.18;45.21
64652;HTU21D;51062;45.120;37.660;2023-05-15T11:27:18;25.00;45.03
64652;HTU21D;51062;45.120;37.660;2023-05-15T11:30:04;24.98;45.00
64652;HTU21D;51062;45.120;37.660;2023-05-15T11:32:31;24.99;44.92
64652;HTU21D;51062;45.120;37.660;2023-05-15T11:35:01;24.97;44.91
64652;HTU21D;51062;45.120;37.660;2023-05-15T11:37:27;24.94;44.84
64652;HTU21D;51062;45.120;37.660;2023-05-15T11:39:54;24.92;44.87
64652;HTU21D;51062;45.120;37.660;2023-05-15T11:42:20;24.89;44.82
64652;HTU21D;51062;45.120;37.660;2023-05-15T11:44:47;24.87;44.80
64652;HTU21D;51062;45.120;37.660;2023-05-15T11:47:13;24.85;44.74
64652;HTU21D;51062;45.120;37.660;2023-05-15T11:49:40;24.82;44.72
64652;HTU21D;51062;45.120;37.660;2023-05-15T11:52:06;24.77;44.70
64652;HTU21D;51062;45.120;37.660;2023-05-15T11:54:32;24.76;44.67
64652;HTU21D;51062;45.120;37.660;2023-05-15T11:56:58;24.74;44.61
64652;HTU21D;51062;45.120;37.660;2023-05-15T11:59:26;24.74;44.64
64652;HTU21D;51062;45.120;37.660;2023-05-15T12:01:52;24.75;44.65
64652;HTU21D;51062;45.120;37.660;2023-05-15T12:04:18;24.75;44.62
64652;HTU21D;51062;45.120;37.660;2023-05-15T12:06:44;24.76;44.61
64652;HTU21D;51062;45.120;37.660;2023-05-15T12:09:16;24.74;44.54
64652;HTU21D;51062;45.120;37.660;2023-05-15T12:11:50;24.70;44.60
64652;HTU21D;51062;45.120;37.660;2023-05-15T12:14:16;24.68;44.62
64652;HTU21D;51062;45.120;37.660;2023-05-15T12:16:42;24.63;44.63
64652;HTU21D;51062;45.120;37.660;2023-05-15T12:19:09;24.58;44.67
64652;HTU21D;51062;45.120;37.660;2023-05-15T12:21:36;24.54;44.74
64652;HTU21D;51062;45.120;37.660;2023-05-15T12:24:09;24.51;44.73
64652;HTU21D;51062;45.120;37.660;2023-05-15T12:26:37;24.49;44.74
64652;HTU21D;51062;45.120;37.660;2023-05-15T12:29:04;24.47;44.68
64652;HTU21D;51062;45.120;37.660;2023-05-15T12:31:33;24.45;44.66
64652;HTU21D;51062;45.120;37.660;2023-05-15T12:34:00;24.43;44.70
64652;HTU21D;51062;45.120;37.660;2023-05-15T12:36:26;24.42;44.72
64652;HTU21D;51062;45.120;37.660;2023-05-15T12:38:57;24.44;44.70
64652;HTU21D;51062;45.120;37.660;2023-05-15T12:41:27;24.41;44.64
64652;HTU21D;51062;45.120;37.660;2023-05-15T12:43:54;24.35;44.63
64652;HTU21D;51062;45.120;37.660;2023-05-15T12:46:24;24.32;44.58
64652;HTU21D;51062;45.120;37.660;2023-05-15T12:48:59;24.26;44.59
64652;HTU21D;51062;45.120;37.660;2023-05-15T12:51:26;24.20;44.63
64652;HTU21D;51062;45.120;37.660;2023-05-15T12:53:55;24.17;44.67
64652;HTU21D;51062;45.120;37.660;2023-05-15T12:56:23;24.16;44.67
64652;HTU21D;51062;45.120;37.660;2023-05-15T12:58:49;24.13;44.70
64652;HTU21D;51062;45.120;37.660;2023-05-15T13:01:16;24.12;44.70
64652;HTU21D;51062;45.120;37.660;2023-05-15T13:03:42;24.10;44.70
64652;HTU21D;51062;45.120;37.660;2023-05-15T13:06:09;24.08;44.74
64652;HTU21D;51062;45.120;37.660;2023-05-15T13:08:40;24.05;44.77
64652;HTU21D;51062;45.120;37.660;2023-05-15T13:11:10;24.03;44.68
64652;HTU21D;51062;45.120;37.660;2023-05-15T13:13:48;24.02;44.70
64652;HTU21D;51062;45.120;37.660;2023-05-15T13:16:23;23.98;44.73
64652;HTU21D;51062;45.120;37.660;2023-05-15T13:18:50;23.97;44.75
64652;HTU21D;51062;45.120;37.660;2023-05-15T13:21:16;23.95;44.76
64652;HTU21D;51062;45.120;37.660;2023-05-15T13:23:43;23.92;44.84
64652;HTU21D;51062;45.120;37.660;2023-05-15T13:26:09;23.92;44.90
64652;HTU21D;51062;45.120;37.660;2023-05-15T13:28:35;23.94;44.91
64652;HTU21D;51062;45.120;37.660;2023-05-15T13:31:01;23.90;44.90
64652;HTU21D;51062;45.120;37.660;2023-05-15T13:33:27;23.88;44.92
64652;HTU21D;51062;45.120;37.660;2023-05-15T13:38:53;23.75;45.03
64652;HTU21D;51062;45.120;37.660;2023-05-15T13:41:19;23.69;45.08
64652;HTU21D;51062;45.120;37.660;2023-05-15T13:43:45;23.65;45.12
64652;HTU21D;51062;45.120;37.660;2023-05-15T13:46:14;23.60;45.13
64652;HTU21D;51062;45.120;37.660;2023-05-15T13:48:40;23.53;45.19
64652;HTU21D;51062;45.120;37.660;2023-05-15T13:51:06;23.46;45.22
64652;HTU21D;51062;45.120;37.660;2023-05-15T13:53:32;23.42;45.28
64652;HTU21D;51062;45.120;37.660;2023-05-15T13:55:58;23.37;45.33
64652;HTU21D;51062;45.120;37.660;2023-05-15T13:58:24;23.34;45.35
64652;HTU21D;51062;45.120;37.660;2023-05-15T14:00:51;23.29;45.38
64652;HTU21D;51062;45.120;37.660;2023-05-15T14:05:42;23.21;42.82
64652;HTU21D;51062;45.120;37.660;2023-05-15T14:08:08;23.14;45.51
64652;HTU21D;51062;45.120;37.660;2023-05-15T14:10:37;23.11;45.54
64652;HTU21D;51062;45.120;37.660;2023-05-15T14:13:03;23.06;45.58
64652;HTU21D;51062;45.120;37.660;2023-05-15T14:15:29;22.99;45.62
64652;HTU21D;51062;45.120;37.660;2023-05-15T14:17:55;22.97;45.68
64652;HTU21D;51062;45.120;37.660;2023-05-15T14:20:21;22.93;45.73
64652;HTU21D;51062;45.120;37.660;2023-05-15T14:22:47;22.87;45.79
64652;HTU21D;51062;45.120;37.660;2023-05-15T14:25:13;22.84;45.83
64652;HTU21D;51062;45.120;37.660;2023-05-15T14:27:40;22.80;45.83
64652;HTU21D;51062;45.120;37.660;2023-05-15T14:30:06;22.76;45.84
64652;HTU21D;51062;45.120;37.660;2023-05-15T14:32:32;22.71;45.87
64652;HTU21D;51062;45.120;37.660;2023-05-15T14:34:58;22.65;45.90
64652;HTU21D;51062;45.120;37.660;2023-05-15T14:37:25;22.62;45.93
64652;HTU21D;51062;45.120;37.660;2023-05-15T14:39:52;22.60;45.93
64652;HTU21D;51062;45.120;37.660;2023-05-15T14:42:20;22.56;45.94
64652;HTU21D;51062;45.120;37.660;2023-05-15T14:44:46;22.51;45.97
64652;HTU21D;51062;45.120;37.660;2023-05-15T14:47:12;22.44;46.02
64652;HTU21D;51062;45.120;37.660;2023-05-15T14:49:39;22.37;46.08
64652;HTU21D;51062;45.120;37.660;2023-05-15T14:52:08;22.32;46.13
64652;HTU21D;51062;45.120;37.660;2023-05-15T14:54:34;22.25;46.19
64652;HTU21D;51062;45.120;37.660;2023-05-15T14:57:01;22.20;46.24
64652;HTU21D;51062;45.120;37.660;2023-05-15T14:59:27;22.13;46.31
64652;HTU21D;51062;45.120;37.660;2023-05-15T15:01:53;22.07;46.38
64652;HTU21D;51062;45.120;37.660;2023-05-15T15:04:19;21.97;46.47
64652;HTU21D;51062;45.120;37.660;2023-05-15T15:06:46;21.91;46.59
64652;HTU21D;51062;45.120;37.660;2023-05-15T15:09:12;21.81;46.70
64652;HTU21D;51062;45.120;37.660;2023-05-15T15:11:38;21.75;46.79
64652;HTU21D;51062;45.120;37.660;2023-05-15T15:14:04;21.67;46.86
64652;HTU21D;51062;45.120;37.660;2023-05-15T15:16:31;21.62;46.94
64652;HTU21D;51062;45.120;37.660;2023-05-15T15:18:57;21.52;47.01
64652;HTU21D;51062;45.120;37.660;2023-05-15T15:21:23;21.46;47.09
64652;HTU21D;51062;45.120;37.660;2023-05-15T15:23:50;21.37;47.18
64652;HTU21D;51062;45.120;37.660;2023-05-15T15:26:16;21.31;47.26
64652;HTU21D;51062;45.120;37.660;2023-05-15T15:28:42;21.21;47.33
64652;HTU21D;51062;45.120;37.660;2023-05-15T15:31:08;21.13;47.41
64652;HTU21D;51062;45.120;37.660;2023-05-15T15:33:34;21.04;47.50
64652;HTU21D;51062;45.120;37.660;2023-05-15T15:36:00;20.94;47.57
64652;HTU21D;51062;45.120;37.660;2023-05-15T15:38:26;20.85;47.67
64652;HTU21D;51062;45.120;37.660;2023-05-15T15:40:52;20.75;47.75
64652;HTU21D;51062;45.120;37.660;2023-05-15T15:43:19;20.64;47.87
64652;HTU21D;51062;45.120;37.660;2023-05-15T15:45:45;20.53;47.99
64652;HTU21D;51062;45.120;37.660;2023-05-15T15:48:11;20.46;48.07
64652;HTU21D;51062;45.120;37.660;2023-05-15T15:50:37;20.37;48.14
64652;HTU21D;51062;45.120;37.660;2023-05-15T15:53:03;20.30;48.21
64652;HTU21D;51062;45.120;37.660;2023-05-15T15:55:29;20.22;48.28